Time;durP1;ratioP1;P1;durP2;ratioP2;P2;SDS_P1;SDS_P2;PMS_P1;PMS_P2;Temp;Humidity;BMP_temperature;BMP_pressure;BME280_temperature;BME280_humidity;BME280_pressure;Samples;Min_cycle;Max_cycle;Signal;HPM_P1;HPM_P2
2022/08/27 00:00:45;;;;;;;3.92;1.80;;;18.10;99.90;;;;;;5078843;28;20032;-59
2022/08/27 00:03:11;;;;;;;4.80;1.88;;;18.10;99.90;;;;;;5079244;28;20027;-59
2022/08/27 00:05:37;;;;;;;5.32;1.85;;;18.20;99.90;;;;;;5078957;28;20183;-59
2022/08/27 00:08:05;;;;;;;3.90;2.03;;;18.20;99.90;;;;;;5079194;28;20025;-59
2022/08/27 00:10:32;;;;;;;4.30;1.90;;;18.30;99.90;;;;;;5078858;28;20434;-57
2022/08/27 00:12:59;;;;;;;5.93;1.83;;;18.40;99.90;;;;;;5078607;28;20051;-57
2022/08/27 00:15:26;;;;;;;4.18;1.77;;;18.20;99.90;;;;;;5078463;28;20025;-58
2022/08/27 00:17:52;;;;;;;4.63;1.80;;;18.20;99.90;;;;;;5078540;28;20028;-61
2022/08/27 00:20:20;;;;;;;5.40;2.13;;;18.30;99.90;;;;;;5078349;28;20055;-58
2022/08/27 00:22:46;;;;;;;6.85;2.05;;;18.20;99.90;;;;;;5094567;28;20028;-58
2022/08/27 00:25:12;;;;;;;4.28;1.60;;;18.10;99.90;;;;;;5078610;28;20024;-58
2022/08/27 00:27:39;;;;;;;6.90;2.35;;;18.10;99.90;;;;;;5078379;28;20028;-58
2022/08/27 00:30:08;;;;;;;5.30;2.20;;;18.00;99.90;;;;;;5078384;28;20175;-58
2022/08/27 00:32:33;;;;;;;3.60;1.75;;;18.00;99.90;;;;;;5078356;28;20056;-59
2022/08/27 00:34:59;;;;;;;6.75;2.00;;;17.90;99.90;;;;;;5060456;28;20173;-58
2022/08/27 00:37:25;;;;;;;6.40;2.03;;;17.90;99.90;;;;;;5078290;28;20178;-58
2022/08/27 00:39:52;;;;;;;4.47;1.95;;;17.80;99.90;;;;;;5078142;28;20047;-58
2022/08/27 00:42:18;;;;;;;4.97;1.92;;;17.90;99.90;;;;;;5078141;28;20047;-58
2022/08/27 00:44:47;;;;;;;8.18;2.10;;;17.80;99.90;;;;;;5078181;28;20029;-58
2022/08/27 00:47:18;;;;;;;6.30;2.13;;;17.80;99.90;;;;;;5078084;28;20040;-59
2022/08/27 00:49:51;;;;;;;7.50;1.95;;;17.80;99.90;;;;;;5078028;28;20040;-58
2022/08/27 00:52:23;;;;;;;5.60;2.20;;;17.80;99.90;;;;;;5078459;28;20273;-58
2022/08/27 00:54:57;;;;;;;3.80;1.93;;;17.80;99.90;;;;;;5078061;28;20060;-58
2022/08/27 00:57:24;;;;;;;5.10;1.88;;;17.60;99.90;;;;;;5078359;28;20035;-58
2022/08/27 00:59:49;;;;;;;4.90;1.90;;;17.60;99.90;;;;;;5077835;28;20055;-58
2022/08/27 01:02:18;;;;;;;4.80;1.80;;;17.60;99.90;;;;;;5077689;28;20028;-58
2022/08/27 01:04:55;;;;;;;3.65;1.90;;;17.70;99.90;;;;;;5077693;28;20046;-58
2022/08/27 01:07:22;;;;;;;6.18;1.85;;;17.60;99.90;;;;;;5077594;28;20033;-59
2022/08/27 01:09:50;;;;;;;4.53;1.88;;;17.50;99.90;;;;;;5077575;28;20079;-58
2022/08/27 01:12:17;;;;;;;7.15;2.00;;;17.50;99.90;;;;;;5077861;28;20029;-58
2022/08/27 01:14:45;;;;;;;4.82;1.85;;;17.50;99.90;;;;;;5077771;28;20049;-58
2022/08/27 01:17:13;;;;;;;8.52;2.55;;;17.50;99.90;;;;;;5077371;28;20036;-58
2022/08/27 01:19:39;;;;;;;6.47;2.00;;;17.50;99.90;;;;;;5077068;28;20062;-59
2022/08/27 01:22:28;;;;;;;2.97;1.70;;;17.50;99.90;;;;;;5077358;28;20028;-59
2022/08/27 01:24:57;;;;;;;5.43;1.90;;;17.50;99.90;;;;;;5076877;28;20052;-59
2022/08/27 01:27:30;;;;;;;5.75;1.88;;;17.40;99.90;;;;;;5077206;28;20025;-59
2022/08/27 01:29:56;;;;;;;5.68;1.77;;;17.40;99.90;;;;;;5077193;28;20028;-59
2022/08/27 01:32:28;;;;;;;3.55;1.80;;;17.40;99.90;;;;;;5077139;28;20037;-59
2022/08/27 01:34:55;;;;;;;3.97;1.80;;;17.50;99.90;;;;;;5077262;28;20105;-59
2022/08/27 01:37:22;;;;;;;3.45;1.80;;;17.40;99.90;;;;;;5077087;28;20083;-59
2022/08/27 01:39:48;;;;;;;4.20;1.80;;;17.40;99.90;;;;;;5077218;28;20032;-59
2022/08/27 01:42:19;;;;;;;3.60;1.80;;;17.30;99.90;;;;;;5077044;28;20036;-59
2022/08/27 01:44:49;;;;;;;3.50;1.48;;;17.30;99.90;;;;;;5077191;28;20032;-59
2022/08/27 01:47:17;;;;;;;4.65;1.50;;;17.20;99.90;;;;;;5076805;28;20063;-58
2022/08/27 01:49:43;;;;;;;5.85;2.10;;;17.20;99.90;;;;;;5076887;28;20020;-59
2022/08/27 01:52:08;;;;;;;4.15;1.95;;;17.20;99.90;;;;;;5077003;28;20029;-59
2022/08/27 01:54:34;;;;;;;4.07;1.65;;;17.10;99.90;;;;;;5076923;28;20035;-59
2022/08/27 01:57:00;;;;;;;5.07;2.28;;;17.20;99.90;;;;;;5076950;28;20189;-60
2022/08/27 01:59:26;;;;;;;4.85;1.73;;;17.10;99.90;;;;;;5076730;28;20296;-59
2022/08/27 02:01:54;;;;;;;3.80;2.00;;;17.10;99.90;;;;;;5076133;28;20090;-59
2022/08/27 02:04:20;;;;;;;4.88;1.80;;;17.10;99.90;;;;;;5092749;28;20376;-59
2022/08/27 02:06:46;;;;;;;2.30;1.63;;;17.10;99.90;;;;;;5076796;28;20062;-59
2022/08/27 02:09:12;;;;;;;4.35;1.48;;;17.10;99.90;;;;;;5076671;28;20059;-59
2022/08/27 02:11:38;;;;;;;4.00;1.90;;;17.00;99.90;;;;;;5076815;28;20085;-58
2022/08/27 02:14:04;;;;;;;3.83;2.13;;;17.00;99.90;;;;;;5077004;28;20033;-58
2022/08/27 02:16:31;;;;;;;6.57;1.90;;;17.00;99.90;;;;;;5076619;28;20033;-58
2022/08/27 02:18:57;;;;;;;5.93;1.88;;;17.00;99.90;;;;;;5076670;28;20039;-58
2022/08/27 02:21:24;;;;;;;5.95;1.77;;;17.00;99.90;;;;;;5077234;28;20037;-58
2022/08/27 02:23:50;;;;;;;3.28;1.80;;;17.00;99.90;;;;;;5076510;28;20051;-58
2022/08/27 02:26:16;;;;;;;4.53;1.75;;;17.00;99.90;;;;;;5076514;28;20024;-58
2022/08/27 02:28:42;;;;;;;4.78;2.05;;;17.00;99.90;;;;;;5076479;28;20036;-58
2022/08/27 02:31:09;;;;;;;4.35;2.00;;;16.90;99.90;;;;;;5077077;28;20317;-58
2022/08/27 02:33:35;;;;;;;4.65;2.05;;;17.00;99.90;;;;;;5076503;28;20304;-58
2022/08/27 02:36:01;;;;;;;5.93;2.13;;;16.90;99.90;;;;;;5076505;28;20109;-58
2022/08/27 02:38:27;;;;;;;4.85;2.20;;;16.80;99.90;;;;;;5076707;28;20339;-58
2022/08/27 02:40:53;;;;;;;3.10;1.80;;;16.90;99.90;;;;;;5076866;28;20044;-59
2022/08/27 02:43:19;;;;;;;5.72;1.95;;;16.80;99.90;;;;;;5076325;28;20439;-58
2022/08/27 02:45:44;;;;;;;5.82;2.15;;;16.80;99.90;;;;;;5093131;28;20036;-58
2022/08/27 02:48:10;;;;;;;4.53;1.90;;;16.80;99.90;;;;;;5076479;28;20028;-58
2022/08/27 02:50:37;;;;;;;3.15;1.70;;;16.70;99.90;;;;;;5076483;28;20024;-58
2022/08/27 02:53:05;;;;;;;4.28;1.83;;;16.70;99.90;;;;;;5076399;28;20051;-58
2022/08/27 02:55:32;;;;;;;4.93;2.10;;;16.70;99.90;;;;;;5076408;28;20033;-58
2022/08/27 02:57:58;;;;;;;6.18;2.25;;;16.70;99.90;;;;;;5076839;28;20048;-61
2022/08/27 03:00:27;;;;;;;3.40;1.80;;;16.70;99.90;;;;;;5080138;28;20281;-59
2022/08/27 03:02:53;;;;;;;4.85;2.22;;;16.70;99.90;;;;;;5080087;28;20029;-59
2022/08/27 03:05:19;;;;;;;5.50;2.17;;;16.70;99.90;;;;;;5080025;28;20304;-59
2022/08/27 03:07:45;;;;;;;3.92;2.38;;;16.70;99.90;;;;;;5080458;28;20297;-61
2022/08/27 03:10:13;;;;;;;4.85;1.83;;;16.70;99.90;;;;;;5079187;28;20032;-59
2022/08/27 03:12:40;;;;;;;4.55;2.20;;;16.60;99.90;;;;;;5079895;28;20296;-59
2022/08/27 03:15:10;;;;;;;6.50;2.30;;;16.70;99.90;;;;;;5079812;28;20090;-59
2022/08/27 03:20:21;;;;;;;4.88;1.85;;;16.60;99.90;;;;;;5079507;28;20048;-58
2022/08/27 03:22:47;;;;;;;4.50;2.03;;;16.60;99.90;;;;;;5078913;28;20031;-59
2022/08/27 03:25:13;;;;;;;6.00;2.22;;;16.80;99.90;;;;;;5078813;28;20123;-58
2022/08/27 03:27:39;;;;;;;4.78;2.40;;;16.80;99.90;;;;;;5079585;28;20020;-59
2022/08/27 03:30:08;;;;;;;3.88;2.20;;;16.80;99.90;;;;;;5079523;28;20349;-58
2022/08/27 03:32:34;;;;;;;5.00;2.25;;;16.80;99.90;;;;;;5079492;28;20044;-59
2022/08/27 03:35:00;;;;;;;3.15;2.25;;;16.80;99.90;;;;;;5079458;28;20028;-58
2022/08/27 03:37:27;;;;;;;4.63;2.20;;;16.70;99.90;;;;;;5079580;28;20025;-58
2022/08/27 03:39:53;;;;;;;2.35;1.80;;;16.70;99.90;;;;;;5079378;28;20040;-59
2022/08/27 03:42:20;;;;;;;6.65;2.10;;;16.60;99.90;;;;;;5079500;28;20024;-59
2022/08/27 03:44:46;;;;;;;5.45;2.30;;;16.60;99.90;;;;;;5079397;28;20304;-59
2022/08/27 03:47:12;;;;;;;4.63;1.95;;;16.60;99.90;;;;;;5095426;28;20028;-58
2022/08/27 03:49:38;;;;;;;5.25;2.08;;;16.60;99.90;;;;;;5079232;28;20064;-58
2022/08/27 03:52:04;;;;;;;3.88;1.95;;;16.70;99.90;;;;;;5079064;28;20032;-58
2022/08/27 03:54:33;;;;;;;3.53;1.90;;;16.60;99.90;;;;;;5079137;28;20055;-58
2022/08/27 03:56:58;;;;;;;5.20;1.90;;;16.50;99.90;;;;;;5079656;28;20032;-58
2022/08/27 03:59:24;;;;;;;6.22;1.98;;;16.60;99.90;;;;;;5079028;28;20024;-58
2022/08/27 04:01:50;;;;;;;2.97;1.85;;;16.60;99.90;;;;;;5079000;28;20025;-58
2022/08/27 04:04:16;;;;;;;4.57;1.98;;;16.70;99.90;;;;;;5078218;28;20029;-58
2022/08/27 04:06:41;;;;;;;4.60;2.00;;;16.70;99.90;;;;;;5078976;28;20032;-59
2022/08/27 04:09:07;;;;;;;3.83;2.08;;;16.70;99.90;;;;;;5078582;28;20440;-59
2022/08/27 04:11:33;;;;;;;5.35;2.10;;;16.90;99.90;;;;;;5078832;28;20391;-58
2022/08/27 04:14:01;;;;;;;5.28;1.83;;;16.90;99.90;;;;;;5079080;28;20043;-59
2022/08/27 04:16:32;;;;;;;3.08;1.85;;;16.90;99.90;;;;;;5078921;28;20028;-59
2022/08/27 04:18:58;;;;;;;8.55;2.05;;;16.80;99.90;;;;;;5078000;28;20078;-59
2022/08/27 04:21:24;;;;;;;4.47;2.33;;;16.80;99.90;;;;;;5078648;28;20032;-59
2022/08/27 04:23:50;;;;;;;6.40;2.33;;;16.70;99.90;;;;;;5078675;28;20036;-59
2022/08/27 04:26:16;;;;;;;3.90;2.47;;;16.70;99.90;;;;;;5078601;28;20044;-59
2022/08/27 04:28:42;;;;;;;4.00;2.13;;;16.90;99.90;;;;;;5078389;28;20299;-59
2022/08/27 04:31:08;;;;;;;6.55;2.05;;;16.90;99.90;;;;;;5078385;28;20036;-59
2022/08/27 04:33:34;;;;;;;4.63;2.05;;;16.90;99.90;;;;;;5078785;28;20036;-57
2022/08/27 04:36:03;;;;;;;7.40;2.38;;;16.90;99.90;;;;;;5078394;28;20052;-57
2022/08/27 04:38:29;;;;;;;2.80;2.17;;;16.90;99.90;;;;;;5078632;28;20351;-58
2022/08/27 04:43:39;;;;;;;6.60;2.42;;;16.70;99.90;;;;;;5078218;28;20056;-58
2022/08/27 04:46:06;;;;;;;4.32;2.78;;;16.70;99.90;;;;;;5078200;28;20118;-59
2022/08/27 04:48:32;;;;;;;6.82;3.08;;;16.70;99.90;;;;;;5077909;28;20404;-58
2022/08/27 04:50:57;;;;;;;6.05;2.97;;;16.60;99.90;;;;;;5077897;28;20036;-58
2022/08/27 04:53:23;;;;;;;6.30;2.90;;;16.80;99.90;;;;;;5078051;28;20040;-58
2022/08/27 04:55:52;;;;;;;7.05;2.80;;;16.80;99.90;;;;;;5077917;28;20404;-58
2022/08/27 04:58:20;;;;;;;5.40;2.60;;;16.70;99.90;;;;;;5078318;28;20037;-59
2022/08/27 05:00:49;;;;;;;5.53;2.85;;;16.60;99.90;;;;;;5077594;28;20024;-59
2022/08/27 05:03:17;;;;;;;5.47;2.45;;;16.50;99.90;;;;;;5077575;28;20094;-60
2022/08/27 05:05:43;;;;;;;4.78;2.50;;;16.40;99.90;;;;;;5076957;28;20028;-58
2022/08/27 05:08:13;;;;;;;4.90;2.30;;;16.30;99.90;;;;;;5077918;28;20029;-59
2022/08/27 05:10:47;;;;;;;7.35;3.10;;;16.20;99.90;;;;;;5076732;28;20033;-58
2022/08/27 05:13:14;;;;;;;4.63;2.25;;;16.20;99.90;;;;;;5077417;28;20418;-58
2022/08/27 05:15:41;;;;;;;8.15;2.72;;;16.20;99.90;;;;;;5077633;28;20111;-58
2022/08/27 05:18:08;;;;;;;3.33;2.35;;;16.40;99.90;;;;;;5077463;28;20408;-58
2022/08/27 05:20:45;;;;;;;3.95;2.30;;;16.50;99.90;;;;;;5077221;28;20045;-58
2022/08/27 05:23:12;;;;;;;4.60;2.40;;;16.50;99.90;;;;;;5077776;28;20033;-60
2022/08/27 05:25:40;;;;;;;5.40;2.88;;;16.50;99.90;;;;;;5077278;28;20044;-58
2022/08/27 05:28:06;;;;;;;4.82;2.55;;;16.60;99.90;;;;;;5077384;28;20029;-59
2022/08/27 05:30:37;;;;;;;3.97;2.40;;;16.60;99.90;;;;;;5077289;28;20044;-58
2022/08/27 05:33:03;;;;;;;6.50;3.00;;;16.60;99.90;;;;;;5076571;28;20040;-59
2022/08/27 05:35:31;;;;;;;5.30;2.50;;;16.70;99.90;;;;;;5077373;28;20036;-59
2022/08/27 05:37:58;;;;;;;4.65;2.25;;;16.80;99.90;;;;;;5077216;28;20020;-59
2022/08/27 05:40:25;;;;;;;4.45;2.50;;;16.90;99.90;;;;;;5077128;28;20041;-59
2022/08/27 05:42:50;;;;;;;3.58;2.10;;;16.90;99.90;;;;;;5077148;28;20047;-59
2022/08/27 05:45:16;;;;;;;4.40;2.50;;;16.90;99.90;;;;;;5077448;28;20024;-59
2022/08/27 05:47:42;;;;;;;5.95;2.15;;;16.90;99.90;;;;;;5093143;28;20104;-59
2022/08/27 05:50:08;;;;;;;5.50;2.50;;;16.90;99.90;;;;;;5076933;28;20063;-59
2022/08/27 05:52:35;;;;;;;6.75;2.30;;;17.10;99.90;;;;;;5077102;28;20032;-60
2022/08/27 05:55:01;;;;;;;4.82;2.00;;;17.20;99.90;;;;;;5076934;28;20032;-59
2022/08/27 05:57:27;;;;;;;4.00;2.15;;;17.30;99.90;;;;;;5076118;28;20032;-59
2022/08/27 06:02:41;;;;;;;3.15;1.52;;;17.70;99.90;;;;;;5077129;28;20107;-58
2022/08/27 06:05:07;;;;;;;4.93;1.77;;;17.90;99.90;;;;;;5076203;28;20052;-58
2022/08/27 06:07:33;;;;;;;3.53;1.23;;;18.00;99.90;;;;;;5076666;28;20064;-59
2022/08/27 06:09:59;;;;;;;4.43;1.60;;;18.20;99.90;;;;;;5076719;28;20032;-58
2022/08/27 06:12:25;;;;;;;6.65;1.77;;;18.40;99.90;;;;;;5076751;28;20037;-58
2022/08/27 06:14:51;;;;;;;3.45;1.27;;;18.50;99.90;;;;;;5076654;28;20036;-59
2022/08/27 06:17:17;;;;;;;3.67;1.42;;;18.60;99.90;;;;;;5076669;28;20525;-59
2022/08/27 06:19:44;;;;;;;4.95;1.77;;;18.50;99.90;;;;;;5076442;28;20137;-59
2022/08/27 06:22:10;;;;;;;3.72;1.65;;;18.50;99.90;;;;;;5076623;28;20396;-58
2022/08/27 06:24:38;;;;;;;6.35;1.50;;;18.60;99.90;;;;;;5076654;28;20327;-59
2022/08/27 06:27:04;;;;;;;5.80;1.63;;;18.40;99.90;;;;;;5076495;28;20028;-59
2022/08/27 06:29:30;;;;;;;2.88;1.20;;;18.30;99.90;;;;;;5076697;28;20028;-58
2022/08/27 06:31:57;;;;;;;3.97;1.58;;;18.30;99.90;;;;;;5075943;28;20025;-58
2022/08/27 06:34:22;;;;;;;4.05;1.55;;;18.30;99.90;;;;;;5079632;28;20331;-58
2022/08/27 06:36:48;;;;;;;7.70;1.70;;;18.30;99.90;;;;;;5080971;28;20024;-58
2022/08/27 06:39:14;;;;;;;4.68;1.52;;;18.40;99.90;;;;;;5080637;28;20037;-58
2022/08/27 06:41:41;;;;;;;5.13;2.08;;;18.40;99.90;;;;;;5080073;28;20092;-58
2022/08/27 06:44:13;;;;;;;4.45;1.20;;;18.50;99.90;;;;;;5096708;28;20380;-59
2022/08/27 06:46:40;;;;;;;3.38;1.40;;;18.60;99.90;;;;;;5080564;28;20415;-59
2022/08/27 06:49:06;;;;;;;3.60;1.45;;;18.60;99.90;;;;;;5080512;28;20028;-58
2022/08/27 06:51:34;;;;;;;5.25;1.52;;;18.70;99.90;;;;;;5080846;28;20062;-59
2022/08/27 06:54:03;;;;;;;5.45;1.23;;;18.80;99.90;;;;;;5080400;28;20028;-58
2022/08/27 06:56:30;;;;;;;4.28;1.13;;;18.80;99.90;;;;;;5080383;28;20039;-58
2022/08/27 06:58:58;;;;;;;4.47;1.30;;;18.90;99.90;;;;;;5080244;28;20029;-58
2022/08/27 07:01:29;;;;;;;4.03;0.90;;;19.10;99.90;;;;;;5080229;28;20360;-59
2022/08/27 07:03:56;;;;;;;2.95;1.30;;;19.20;99.90;;;;;;5080731;28;20060;-59
2022/08/27 07:06:22;;;;;;;2.20;0.90;;;19.30;99.90;;;;;;5080296;28;20040;-59
2022/08/27 07:08:48;;;;;;;4.35;1.02;;;19.40;99.90;;;;;;5079745;28;20105;-59
2022/08/27 07:11:14;;;;;;;5.05;1.55;;;19.40;99.90;;;;;;5080105;28;20397;-58
2022/08/27 07:13:41;;;;;;;2.90;1.20;;;19.40;99.90;;;;;;5079353;28;20456;-59
2022/08/27 07:16:10;;;;;;;6.07;1.20;;;19.40;99.90;;;;;;5079850;28;20042;-61
2022/08/27 07:18:37;;;;;;;4.63;1.25;;;19.40;99.90;;;;;;5080266;28;20115;-58
2022/08/27 07:21:03;;;;;;;3.67;1.10;;;19.30;99.90;;;;;;5078975;28;20041;-59
2022/08/27 07:23:33;;;;;;;5.13;1.40;;;19.50;99.90;;;;;;5096104;28;20037;-59
2022/08/27 07:25:59;;;;;;;4.30;1.33;;;19.60;99.90;;;;;;5079869;28;20427;-60
2022/08/27 07:28:25;;;;;;;3.80;0.90;;;19.80;99.90;;;;;;5096214;28;20052;-59
2022/08/27 07:30:52;;;;;;;2.83;1.00;;;19.90;99.90;;;;;;5079775;28;20036;-59
2022/08/27 07:33:18;;;;;;;5.20;1.20;;;20.00;99.90;;;;;;5079675;28;20281;-59
2022/08/27 07:35:45;;;;;;;3.83;1.05;;;20.00;99.90;;;;;;5078799;28;20098;-60
2022/08/27 07:38:12;;;;;;;3.70;1.20;;;20.10;99.90;;;;;;5079601;28;20040;-59
2022/08/27 07:40:38;;;;;;;3.10;1.08;;;20.20;99.90;;;;;;5080052;28;20127;-59
2022/08/27 07:45:54;;;;;;;3.47;1.30;;;20.30;99.90;;;;;;5058311;28;20304;-59
2022/08/27 07:48:24;;;;;;;3.22;1.17;;;20.30;99.90;;;;;;5058622;28;20465;-59
2022/08/27 07:50:51;;;;;;;3.88;1.05;;;20.40;99.90;;;;;;5059654;28;20131;-58
2022/08/27 07:53:18;;;;;;;3.80;0.90;;;20.40;99.90;;;;;;5058607;28;20037;-59
2022/08/27 07:55:44;;;;;;;3.22;0.70;;;20.50;99.90;;;;;;5059279;28;20024;-59
2022/08/27 07:58:10;;;;;;;5.25;1.08;;;20.60;99.90;;;;;;5059178;28;20175;-58
2022/08/27 08:00:36;;;;;;;2.20;1.10;;;20.70;99.90;;;;;;5059038;28;20040;-57
2022/08/27 08:03:02;;;;;;;3.90;1.25;;;20.60;99.90;;;;;;5059017;28;20025;-59
2022/08/27 08:05:28;;;;;;;4.00;0.93;;;20.60;99.90;;;;;;5059076;28;20405;-59
2022/08/27 08:07:54;;;;;;;3.65;1.20;;;20.60;99.90;;;;;;5058505;28;20171;-59
2022/08/27 08:10:22;;;;;;;3.60;1.10;;;20.70;99.90;;;;;;5059006;28;20112;-60
2022/08/27 08:12:49;;;;;;;4.47;1.00;;;21.00;99.90;;;;;;5059263;28;20489;-59
2022/08/27 08:15:16;;;;;;;2.53;1.00;;;21.00;99.90;;;;;;5058904;28;20388;-60
2022/08/27 08:17:42;;;;;;;4.65;1.00;;;21.10;99.90;;;;;;5058854;28;20292;-59
2022/08/27 08:20:10;;;;;;;2.78;1.10;;;21.10;99.90;;;;;;5058539;28;20119;-57
2022/08/27 08:22:36;;;;;;;5.13;1.50;;;21.10;99.90;;;;;;5058268;28;20035;-58
2022/08/27 08:25:03;;;;;;;2.63;1.00;;;21.00;99.90;;;;;;5058750;28;20025;-58
2022/08/27 08:27:31;;;;;;;4.03;1.23;;;21.00;99.90;;;;;;5058707;28;20071;-58
2022/08/27 08:29:58;;;;;;;5.00;1.33;;;21.10;99.90;;;;;;5058269;28;20049;-59
2022/08/27 08:32:24;;;;;;;4.57;1.00;;;21.30;99.90;;;;;;5058559;28;20037;-59
2022/08/27 08:34:50;;;;;;;3.83;1.20;;;21.40;99.90;;;;;;5058477;28;20095;-58
2022/08/27 08:37:16;;;;;;;4.57;1.08;;;21.40;99.90;;;;;;5058498;28;20503;-59
2022/08/27 08:39:42;;;;;;;3.72;1.13;;;21.60;99.90;;;;;;5058370;28;20036;-59
2022/08/27 08:42:28;;;;;;;2.92;1.05;;;21.70;99.90;;;;;;5058419;28;20033;-58
2022/08/27 08:44:56;;;;;;;3.58;1.00;;;21.80;99.90;;;;;;5057524;28;20119;-59
2022/08/27 08:47:44;;;;;;;4.32;0.90;;;21.80;99.90;;;;;;5058329;28;20017;-59
2022/08/27 08:50:17;;;;;;;4.00;1.13;;;21.80;99.90;;;;;;5058231;28;20036;-58
2022/08/27 08:53:08;;;;;;;2.55;1.00;;;21.80;99.90;;;;;;5058244;28;20080;-59
2022/08/27 08:55:46;;;;;;;3.92;1.13;;;21.90;99.90;;;;;;5057890;28;20032;-58
2022/08/27 08:58:30;;;;;;;3.75;1.27;;;22.00;99.90;;;;;;5058048;28;20021;-58
2022/08/27 09:01:02;;;;;;;1.60;1.00;;;22.00;99.90;;;;;;5057955;28;20028;-58
2022/08/27 09:03:31;;;;;;;3.10;1.30;;;21.80;99.90;;;;;;5058002;28;20037;-57
2022/08/27 09:06:09;;;;;;;2.42;0.93;;;21.90;99.90;;;;;;5058008;28;20083;-59
2022/08/27 09:08:39;;;;;;;3.13;1.10;;;22.00;99.90;;;;;;5057971;28;20033;-57
2022/08/27 09:11:08;;;;;;;3.05;0.93;;;22.10;99.90;;;;;;5058408;28;20353;-58
2022/08/27 09:13:41;;;;;;;1.90;0.90;;;22.30;99.90;;;;;;5057784;28;20056;-58
2022/08/27 09:16:08;;;;;;;2.30;1.10;;;22.30;99.90;;;;;;5057993;28;20112;-58
2022/08/27 09:18:39;;;;;;;2.65;1.20;;;22.50;99.90;;;;;;5057696;28;20068;-59
2022/08/27 09:21:34;;;;;;;3.42;1.13;;;22.50;99.90;;;;;;5057558;28;20107;-58
2022/08/27 09:24:15;;;;;;;2.78;1.33;;;22.30;99.90;;;;;;5057534;28;20037;-59
2022/08/27 09:26:42;;;;;;;3.30;1.10;;;22.20;99.90;;;;;;5057557;28;20021;-59
2022/08/27 09:29:20;;;;;;;2.85;1.10;;;22.00;99.90;;;;;;5057492;28;20044;-59
2022/08/27 09:32:03;;;;;;;3.17;0.90;;;22.10;99.90;;;;;;5057931;28;20324;-58
2022/08/27 09:34:38;;;;;;;3.05;1.33;;;22.40;99.90;;;;;;5057506;28;20029;-58
2022/08/27 09:37:26;;;;;;;2.65;1.08;;;22.60;99.90;;;;;;5056624;28;20054;-58
2022/08/27 09:40:06;;;;;;;3.38;1.00;;;22.70;99.90;;;;;;5057258;28;20045;-60
2022/08/27 09:42:51;;;;;;;2.42;0.88;;;22.70;99.90;;;;;;5057323;28;20021;-59
2022/08/27 09:45:27;;;;;;;1.75;1.00;;;22.80;99.90;;;;;;5057191;28;20029;-59
2022/08/27 09:48:13;;;;;;;5.68;1.00;;;23.00;99.90;;;;;;5056541;28;20033;-59
2022/08/27 09:50:53;;;;;;;1.52;0.85;;;23.20;99.90;;;;;;5057102;28;20047;-59
2022/08/27 09:53:30;;;;;;;3.35;1.10;;;23.70;99.90;;;;;;5057176;28;20025;-58
2022/08/27 09:56:02;;;;;;;2.13;1.02;;;24.10;99.90;;;;;;5056917;28;20334;-58
2022/08/27 09:58:46;;;;;;;4.63;1.17;;;24.50;99.90;;;;;;5056900;28;20060;-59
2022/08/27 10:01:22;;;;;;;1.83;0.80;;;24.50;99.90;;;;;;5056964;28;20032;-59
2022/08/27 10:03:48;;;;;;;1.92;1.00;;;24.80;99.90;;;;;;5056913;28;20300;-59
2022/08/27 10:06:32;;;;;;;2.13;0.93;;;25.00;99.90;;;;;;5057227;28;20048;-59
2022/08/27 10:09:24;;;;;;;4.95;1.20;;;24.40;99.90;;;;;;5055569;28;20539;-60
2022/08/27 10:12:06;;;;;;;3.03;1.13;;;24.30;99.90;;;;;;5050380;28;20094;-60
2022/08/27 10:14:45;;;;;;;4.00;1.05;;;24.40;99.90;;;;;;5056764;28;20029;-60
2022/08/27 10:17:16;;;;;;;2.72;0.85;;;24.30;99.90;;;;;;5056743;28;20025;-60
2022/08/27 10:19:46;;;;;;;4.30;1.25;;;24.30;99.90;;;;;;5056424;28;20036;-60
2022/08/27 10:22:27;;;;;;;2.05;1.15;;;24.10;99.90;;;;;;5056937;28;20025;-59
2022/08/27 10:25:30;;;;;;;4.65;0.98;;;24.10;99.90;;;;;;5056652;28;20021;-60
2022/08/27 10:28:23;;;;;;;3.67;1.30;;;24.20;99.90;;;;;;5072776;28;20037;-59
2022/08/27 10:31:04;;;;;;;2.45;1.08;;;24.30;99.90;;;;;;5056763;28;20033;-58
2022/08/27 10:34:07;;;;;;;2.92;1.30;;;24.50;99.90;;;;;;5056762;28;20389;-59
2022/08/27 10:36:58;;;;;;;3.22;1.23;;;25.00;99.90;;;;;;5056697;28;20033;-59
2022/08/27 10:39:56;;;;;;;3.25;1.00;;;25.40;99.90;;;;;;5056618;28;20036;-59
2022/08/27 10:42:37;;;;;;;3.28;0.90;;;25.80;99.90;;;;;;5056556;28;20359;-60
2022/08/27 10:45:16;;;;;;;2.05;0.98;;;26.00;99.90;;;;;;5072610;28;20040;-60
2022/08/27 10:48:03;;;;;;;3.45;1.25;;;26.20;99.90;;;;;;5056581;28;20355;-59
2022/08/27 10:50:44;;;;;;;2.10;1.00;;;26.30;99.90;;;;;;5072528;28;20029;-59
2022/08/27 10:53:51;;;;;;;3.53;1.17;;;26.40;99.90;;;;;;5056497;28;20443;-58
2022/08/27 10:56:40;;;;;;;5.15;1.20;;;26.50;99.90;;;;;;5056429;28;20048;-59
2022/08/27 10:59:14;;;;;;;3.83;1.35;;;26.50;99.90;;;;;;5056798;28;20384;-59
2022/08/27 11:01:51;;;;;;;2.35;1.10;;;26.30;99.90;;;;;;5056413;28;20033;-60
2022/08/27 11:04:25;;;;;;;3.53;1.20;;;26.10;99.90;;;;;;5056575;28;20392;-60
2022/08/27 11:06:57;;;;;;;1.65;1.00;;;25.90;99.90;;;;;;5056880;28;20052;-60
2022/08/27 11:09:47;;;;;;;1.60;1.00;;;25.90;99.90;;;;;;5056342;28;20025;-60
2022/08/27 11:12:20;;;;;;;4.35;1.08;;;25.70;99.90;;;;;;5047737;28;20041;-59
2022/08/27 11:14:51;;;;;;;2.88;1.25;;;26.00;99.90;;;;;;5056488;28;20044;-59
2022/08/27 11:17:28;;;;;;;4.25;1.38;;;26.70;99.90;;;;;;5056711;28;20048;-59
2022/08/27 11:20:02;;;;;;;4.50;1.23;;;27.40;99.90;;;;;;5058177;28;20052;-59
2022/08/27 11:22:40;;;;;;;3.75;1.20;;;27.40;99.90;;;;;;5059900;28;20112;-59
2022/08/27 11:25:38;;;;;;;2.72;1.23;;;27.60;99.90;;;;;;5059919;28;20112;-60
2022/08/27 11:28:07;;;;;;;3.95;1.13;;;28.00;99.90;;;;;;5046209;28;20045;-59
2022/08/27 11:30:51;;;;;;;4.75;1.25;;;28.10;99.90;;;;;;5059851;28;20039;-59
2022/08/27 11:33:32;;;;;;;4.18;1.40;;;28.30;99.90;;;;;;5059026;28;20025;-59
2022/08/27 11:36:16;;;;;;;2.40;1.40;;;28.00;99.90;;;;;;5059669;28;20435;-59
2022/08/27 11:38:58;;;;;;;6.15;1.73;;;28.50;99.90;;;;;;5059675;28;20029;-59
2022/08/27 11:41:55;;;;;;;2.53;1.27;;;28.30;99.90;;;;;;5059597;28;20104;-60
2022/08/27 11:44:24;;;;;;;2.33;1.45;;;28.90;99.90;;;;;;5059544;28;20396;-59
2022/08/27 11:46:57;;;;;;;3.97;1.48;;;29.50;99.90;;;;;;5059487;28;20025;-59
2022/08/27 11:49:28;;;;;;;4.22;1.48;;;29.80;99.90;;;;;;5059500;28;20338;-59
2022/08/27 11:52:06;;;;;;;4.72;1.48;;;29.70;99.90;;;;;;5059774;28;20057;-59
2022/08/27 11:54:43;;;;;;;3.92;1.50;;;29.60;99.90;;;;;;5058548;28;20048;-60
2022/08/27 11:57:30;;;;;;;2.80;1.33;;;29.40;99.90;;;;;;5059164;28;20064;-58
2022/08/27 11:59:57;;;;;;;3.90;1.30;;;29.50;99.90;;;;;;5059309;28;20075;-59
2022/08/27 12:02:28;;;;;;;4.50;1.60;;;28.60;99.90;;;;;;5059209;28;20100;-59
2022/08/27 12:05:18;;;;;;;3.13;1.40;;;28.60;99.90;;;;;;5059356;28;20037;-59
2022/08/27 12:07:47;;;;;;;3.60;1.50;;;28.40;99.90;;;;;;5059035;28;20367;-59
2022/08/27 12:10:53;;;;;;;5.72;1.77;;;28.40;99.90;;;;;;5059073;28;20432;-59
2022/08/27 12:13:43;;;;;;;2.83;1.42;;;28.50;99.90;;;;;;5058565;28;20053;-59
2022/08/27 12:16:24;;;;;;;4.28;1.75;;;27.90;99.90;;;;;;5059132;28;20033;-59
2022/08/27 12:19:21;;;;;;;2.75;1.40;;;27.20;99.90;;;;;;5058891;28;20068;-59
2022/08/27 12:22:14;;;;;;;2.05;1.20;;;27.80;99.90;;;;;;5058768;28;20033;-59
2022/08/27 12:24:51;;;;;;;4.40;1.70;;;28.00;99.90;;;;;;5058732;28;20037;-59
2022/08/27 12:27:30;;;;;;;4.07;1.73;;;28.00;99.90;;;;;;5058828;28;20029;-59
2022/08/27 12:30:03;;;;;;;3.05;1.67;;;27.10;99.90;;;;;;5058029;28;20036;-59
2022/08/27 12:32:35;;;;;;;4.03;1.35;;;26.10;99.90;;;;;;5058499;28;20032;-59
2022/08/27 12:35:25;;;;;;;3.70;1.73;;;25.70;99.90;;;;;;5057852;28;20029;-58
2022/08/27 12:38:24;;;;;;;3.03;1.60;;;25.20;99.90;;;;;;5059007;28;20025;-58
2022/08/27 12:40:56;;;;;;;2.75;1.50;;;25.10;99.90;;;;;;5058849;28;20075;-58
2022/08/27 12:43:27;;;;;;;3.65;1.77;;;24.80;99.90;;;;;;5058337;28;20056;-59
2022/08/27 12:46:07;;;;;;;11.93;2.80;;;25.00;99.90;;;;;;5058424;28;20033;-58
2022/08/27 12:48:38;;;;;;;4.63;1.48;;;25.10;99.90;;;;;;5058479;28;20369;-58
2022/08/27 12:51:11;;;;;;;4.38;1.77;;;25.20;99.90;;;;;;5058917;28;20041;-59
2022/08/27 12:53:43;;;;;;;4.40;1.73;;;25.30;99.90;;;;;;5058102;28;20032;-59
2022/08/27 12:56:33;;;;;;;3.63;1.42;;;25.00;99.90;;;;;;5058214;28;20033;-59
2022/08/27 12:59:15;;;;;;;6.18;1.52;;;25.00;99.90;;;;;;5058417;28;20452;-59
2022/08/27 13:02:00;;;;;;;5.63;2.22;;;25.10;99.90;;;;;;5058339;28;20043;-59
2022/08/27 13:04:29;;;;;;;3.13;1.70;;;25.10;99.90;;;;;;5058029;28;20063;-60
2022/08/27 13:06:56;;;;;;;2.42;1.65;;;25.10;99.90;;;;;;5057947;28;20319;-60
2022/08/27 13:09:29;;;;;;;4.30;1.40;;;25.10;99.90;;;;;;5057762;28;20098;-58
2022/08/27 13:11:58;;;;;;;2.97;1.50;;;25.10;99.90;;;;;;5058184;28;20436;-59
2022/08/27 13:14:26;;;;;;;3.60;1.70;;;25.20;99.90;;;;;;5057807;28;20033;-58
2022/08/27 13:16:59;;;;;;;3.67;1.20;;;25.20;99.90;;;;;;5057796;28;20094;-59
2022/08/27 13:19:25;;;;;;;3.83;1.33;;;25.20;99.90;;;;;;5057589;28;20286;-59